createdAt,value
2022-11-18T00:04:39.680Z,7.01
2022-11-18T00:09:43.595Z,7.46
2022-11-18T00:14:47.367Z,7.25
2022-11-18T00:19:49.924Z,6.85
2022-11-18T00:24:53.952Z,7.58
2022-11-18T00:29:56.528Z,7.85
2022-11-18T00:34:59.106Z,7.07
2022-11-18T00:40:07.536Z,7.25
2022-11-18T00:45:10.889Z,7.70
2022-11-18T00:50:13.968Z,7.73
2022-11-18T00:55:19.044Z,7.76
2022-11-18T01:00:21.777Z,7.70
2022-11-18T01:05:24.377Z,7.76
2022-11-18T01:10:28.382Z,7.26
2022-11-18T01:15:31.042Z,7.55
2022-11-18T01:20:34.005Z,7.43
2022-11-18T01:25:39.820Z,7.65
2022-11-18T01:30:45.652Z,7.37
2022-11-18T01:35:48.231Z,7.60
2022-11-18T01:40:54.815Z,7.24
2022-11-18T01:45:57.566Z,7.58
2022-11-18T01:51:05.049Z,7.87
2022-11-18T01:56:13.615Z,7.93
2022-11-18T02:01:16.530Z,7.46
2022-11-18T02:06:19.825Z,6.97
2022-11-18T02:11:41.116Z,7.22
2022-11-18T02:16:57.079Z,7.12
2022-11-18T02:22:12.414Z,7.53
2022-11-18T02:27:52.579Z,6.49
2022-11-18T02:33:02.187Z,6.93
2022-11-18T02:38:11.156Z,7.12
2022-11-18T02:43:19.505Z,6.44
2022-11-18T02:48:27.059Z,6.97
2022-11-18T02:53:32.697Z,6.77
2022-11-18T02:58:35.340Z,7.23
2022-11-18T03:03:39.362Z,7.09
2022-11-18T03:08:49.352Z,7.08
2022-11-18T03:14:08.066Z,6.85
2022-11-18T03:19:21.774Z,7.07
2022-11-18T03:24:32.584Z,7.01
2022-11-18T03:29:39.180Z,6.70
2022-11-18T03:34:47.358Z,6.82
2022-11-18T03:39:56.788Z,6.83
2022-11-18T03:45:04.593Z,7.17
2022-11-18T03:50:17.373Z,6.62
2022-11-18T03:55:24.307Z,7.04
2022-11-18T04:00:31.010Z,6.80
2022-11-18T04:05:40.590Z,6.79
2022-11-18T04:10:52.923Z,7.13
2022-11-18T04:15:56.472Z,6.74
2022-11-18T04:21:00.387Z,7.31
2022-11-18T04:26:02.992Z,6.89
2022-11-18T04:31:05.833Z,6.81
2022-11-18T04:36:10.565Z,6.84
2022-11-18T04:41:13.150Z,6.96
2022-11-18T04:46:15.742Z,6.50
2022-11-18T04:51:19.719Z,6.19
2022-11-18T04:56:22.296Z,6.26
2022-11-18T05:01:24.990Z,6.79
2022-11-18T05:06:29.076Z,6.43
2022-11-18T05:11:49.337Z,6.62
2022-11-18T05:16:51.867Z,6.62
2022-11-18T05:21:56.049Z,5.89
2022-11-18T05:26:58.600Z,5.67
2022-11-18T05:32:01.327Z,5.71
2022-11-18T05:37:05.341Z,5.95
2022-11-18T05:42:25.449Z,6.21
2022-11-18T05:47:28.193Z,5.76
2022-11-18T05:52:32.122Z,5.86
2022-11-18T05:57:35.224Z,5.36
2022-11-18T06:02:38.699Z,5.70
2022-11-18T06:07:45.235Z,4.96
2022-11-18T06:12:52.507Z,5.21
2022-11-18T06:17:58.908Z,4.74
2022-11-18T06:23:02.859Z,4.72
2022-11-18T06:28:05.875Z,4.54
2022-11-18T06:33:08.783Z,4.90
2022-11-18T06:38:12.724Z,5.00
2022-11-18T06:43:32.924Z,4.87
2022-11-18T06:48:35.539Z,5.13
2022-11-18T06:53:39.540Z,4.93
2022-11-18T06:58:42.257Z,4.65
2022-11-18T07:03:46.393Z,5.07
2022-11-18T07:08:51.581Z,4.66
2022-11-18T07:13:54.654Z,4.95
2022-11-18T07:18:57.632Z,5.17
2022-11-18T07:24:01.566Z,5.08
2022-11-18T07:29:04.661Z,5.13
2022-11-18T07:34:07.887Z,4.70
2022-11-18T07:39:11.960Z,4.88
2022-11-18T07:44:14.672Z,4.40
2022-11-18T07:49:17.524Z,4.71
2022-11-18T07:54:21.588Z,4.18
2022-11-18T07:59:24.307Z,4.01
2022-11-18T08:04:27.039Z,4.09
2022-11-18T08:09:30.922Z,4.34
2022-11-18T08:14:33.497Z,3.73
2022-11-18T08:19:39.154Z,3.73
2022-11-18T08:24:43.085Z,3.64
2022-11-18T08:29:45.832Z,3.80
2022-11-18T08:34:48.582Z,4.09
2022-11-18T08:39:52.492Z,3.86
2022-11-18T08:44:55.851Z,3.69
2022-11-18T08:49:58.479Z,3.95
2022-11-18T08:55:03.162Z,3.78
2022-11-18T09:00:08.221Z,3.95
2022-11-18T09:05:13.058Z,3.84
2022-11-18T09:10:17.735Z,3.96
2022-11-18T09:15:20.832Z,3.81
2022-11-18T09:20:24.169Z,4.23
2022-11-18T09:25:28.156Z,3.63
2022-11-18T09:30:31.334Z,3.55
2022-11-18T09:35:34.381Z,3.30
2022-11-18T09:40:47.727Z,3.38
2022-11-18T09:45:57.618Z,2.95
2022-11-18T09:51:01.203Z,2.98
2022-11-18T09:56:05.897Z,3.09
2022-11-18T10:01:14.106Z,3.15
2022-11-18T10:06:23.904Z,2.86
2022-11-18T10:11:40.273Z,2.92
2022-11-18T10:16:57.741Z,2.79
2022-11-18T10:22:24.654Z,2.99
2022-11-18T10:27:38.644Z,2.16
2022-11-18T10:32:54.875Z,2.57
2022-11-18T10:38:10.197Z,2.47
2022-11-18T10:43:38.040Z,2.33
2022-11-18T10:48:40.582Z,2.10
2022-11-18T10:53:43.730Z,2.21
2022-11-18T10:58:50.868Z,2.28
2022-11-18T11:04:02.147Z,2.40
2022-11-18T11:09:08.777Z,2.70
2022-11-18T11:14:32.953Z,2.24
2022-11-18T11:19:42.142Z,2.17
2022-11-18T11:24:45.600Z,1.77
2022-11-18T11:30:14.245Z,2.03
2022-11-18T11:35:23.510Z,1.69
2022-11-18T11:40:34.809Z,1.44
2022-11-18T11:45:47.951Z,1.30
2022-11-18T11:51:04.046Z,1.39
2022-11-18T11:56:21.163Z,1.63
2022-11-18T12:01:35.458Z,1.79
2022-11-18T12:06:38.244Z,1.21
2022-11-18T12:11:50.670Z,1.25
2022-11-18T12:17:02.994Z,1.78
2022-11-18T12:22:06.415Z,1.70
2022-11-18T12:27:35.606Z,1.47
2022-11-18T12:32:42.983Z,1.42
2022-11-18T12:38:00.755Z,1.33
2022-11-18T12:43:21.724Z,1.30
2022-11-18T12:48:41.159Z,1.44
2022-11-18T12:53:45.996Z,1.59
2022-11-18T12:58:50.058Z,1.65
2022-11-18T13:04:06.263Z,1.85
2022-11-18T13:09:17.936Z,1.35
2022-11-18T13:14:48.213Z,1.57
2022-11-18T13:19:58.944Z,1.42
2022-11-18T13:25:01.534Z,1.21
2022-11-18T13:30:11.048Z,1.16
2022-11-18T13:35:18.728Z,1.47
2022-11-18T13:40:24.869Z,1.02
2022-11-18T13:45:29.382Z,1.29
2022-11-18T13:50:34.429Z,1.02
2022-11-18T13:55:41.046Z,0.91
2022-11-18T14:00:43.815Z,1.59
2022-11-18T14:05:54.064Z,1.24
2022-11-18T14:10:57.542Z,0.91
2022-11-18T14:16:02.533Z,0.95
2022-11-18T14:21:06.868Z,1.32
2022-11-18T14:26:10.069Z,0.79
2022-11-18T14:31:24.898Z,0.71
2022-11-18T14:36:32.032Z,0.20
2022-11-18T14:41:50.685Z,0.50
2022-11-18T14:47:12.063Z,0.72
2022-11-18T14:52:17.033Z,0.37
2022-11-18T14:57:19.677Z,0.72
2022-11-18T15:02:22.315Z,0.72
2022-11-18T15:07:26.266Z,0.27
2022-11-18T15:12:28.892Z,0.17
2022-11-18T15:17:31.458Z,0.36
2022-11-18T15:22:35.609Z,0.19
2022-11-18T15:27:39.068Z,-0.01
2022-11-18T15:32:41.689Z,0.18
2022-11-18T15:37:45.575Z,-0.42
2022-11-18T15:42:52.013Z,-0.01
2022-11-18T15:47:55.532Z,0.04
2022-11-18T15:53:02.122Z,-0.28
2022-11-18T15:58:07.115Z,-0.61
2022-11-18T16:03:10.180Z,-0.29
2022-11-18T16:08:14.187Z,-0.18
2022-11-18T16:13:22.243Z,0.13
2022-11-18T16:18:25.267Z,-0.29
2022-11-18T16:23:29.953Z,-0.70
2022-11-18T16:28:35.287Z,0.07
2022-11-18T16:33:38.583Z,0.17
2022-11-18T16:38:43.390Z,0.75
2022-11-18T16:43:45.994Z,0.47
2022-11-18T16:48:48.879Z,0.50
2022-11-18T16:53:55.663Z,-0.24
2022-11-18T16:59:00.469Z,0.15
2022-11-18T17:04:03.956Z,0.10
2022-11-18T17:09:09.192Z,0.07
2022-11-18T17:14:13.291Z,0.01
2022-11-18T17:19:18.036Z,-0.07
2022-11-18T17:24:24.042Z,-0.28
2022-11-18T17:29:26.602Z,0.02
2022-11-18T17:34:29.237Z,0.27
2022-11-18T17:39:33.293Z,-0.13
2022-11-18T17:44:35.838Z,-0.14
2022-11-18T17:49:38.396Z,0.18
2022-11-18T17:54:42.339Z,0.58
2022-11-18T17:59:44.918Z,0.82
2022-11-18T18:04:49.930Z,0.68
2022-11-18T18:09:54.240Z,0.29
2022-11-18T18:14:56.780Z,0.22
2022-11-18T18:19:59.334Z,0.49
2022-11-18T18:25:03.695Z,0.78
2022-11-18T18:30:16.329Z,0.80
2022-11-18T18:35:19.768Z,1.40
2022-11-18T18:40:26.349Z,1.06
2022-11-18T18:45:46.629Z,0.95
2022-11-18T18:50:49.752Z,1.03
2022-11-18T18:55:58.217Z,0.72
2022-11-18T19:01:07.573Z,0.23
2022-11-18T19:12:02.057Z,0.32
2022-11-18T19:22:33.536Z,-0.13
2022-11-18T19:27:40.440Z,0.19
2022-11-18T19:32:44.135Z,-0.55
2022-11-18T19:37:47.588Z,-0.19
2022-11-18T19:42:52.474Z,-0.32
2022-11-18T19:47:55.818Z,-0.40
2022-11-18T19:52:58.427Z,-0.62
2022-11-18T19:58:03.153Z,-0.08
2022-11-18T20:03:06.448Z,-0.24
2022-11-18T20:08:10.354Z,-0.34
2022-11-18T20:13:15.901Z,-0.15
2022-11-18T20:18:22.442Z,-0.49
2022-11-18T20:23:25.770Z,-0.34
2022-11-18T20:28:30.239Z,-0.30
2022-11-18T20:33:34.818Z,-0.22
2022-11-18T20:38:37.777Z,-0.17
2022-11-18T20:43:44.283Z,-0.16
2022-11-18T20:48:49.411Z,0.01
2022-11-18T20:53:56.256Z,0.15
2022-11-18T20:59:03.579Z,0.47
2022-11-18T21:04:07.016Z,-0.08
2022-11-18T21:09:10.316Z,0.02
2022-11-18T21:14:25.371Z,0.37
2022-11-18T21:19:29.594Z,0.15
2022-11-18T21:24:36.051Z,0.27
2022-11-18T21:29:46.619Z,0.46
2022-11-18T21:34:49.799Z,-0.10
2022-11-18T21:39:53.930Z,0.01
2022-11-18T21:44:59.552Z,-0.41
2022-11-18T21:50:02.906Z,-0.26
2022-11-18T21:55:07.873Z,-0.21
2022-11-18T22:00:17.438Z,-0.24
2022-11-18T22:05:20.685Z,-0.30
2022-11-18T22:10:24.126Z,-0.50
2022-11-18T22:15:28.885Z,0.03
2022-11-18T22:20:32.171Z,0.14
2022-11-18T22:25:35.494Z,-0.45
2022-11-18T22:30:41.656Z,-0.41
2022-11-18T22:35:45.073Z,-0.26
2022-11-18T22:40:48.396Z,-0.35
2022-11-18T22:45:59.699Z,0.23
2022-11-18T22:51:04.453Z,0.23
2022-11-18T22:56:10.774Z,-0.09
2022-11-18T23:01:17.474Z,0.24
2022-11-18T23:06:21.294Z,0.08
2022-11-18T23:11:38.384Z,-0.28
2022-11-18T23:16:43.575Z,-0.21
2022-11-18T23:21:46.619Z,0.14
2022-11-18T23:26:49.432Z,0.11
2022-11-18T23:31:53.833Z,0.85
2022-11-18T23:36:56.299Z,0.04
2022-11-18T23:41:58.994Z,-0.19
2022-11-18T23:47:02.867Z,-0.02
2022-11-18T23:52:06.130Z,0.53
2022-11-18T23:57:09.267Z,-0.31
